Ride Results

Sussex Inlet (11-11-2012)
Ride distance: 100.0 km Elevator

Outcomes - Sussex Inlet (11-11-2012)
Division No. of Entries Retired / DNE Completed Withdrawn Ineligible V/O Percentage Completed
HW 6 2 4 - - - 100.00%
MW 20 9 9 2 - - 90.00%
LW 19 9 8 - - 2 89.47%
JN 8 3 5 - - - 100.00%
Totals 53 23 26 2 - 2 92.45%
Results - Sussex Inlet (11-11-2012)
No. Rider Horse Place Time Leg Speeds Total
Km/Hr
H/R bpm
Heavyweight
23 Peter Norman Tallaganda Downs Natifa 1 5:15:00 14.9, 22.4, 25.5 19.05 38, 52, 46, 46 (Avg:48)
62 Evan Drain-Shepheard Currowan Clancy 2 5:25:00 18.7, 22.8, 13.0 18.46 37, 54, 59, 56 (Avg:56)
55 Paddy Smith Akifa Farras Titan 3 6:11:00 14.9, 19.6, 13.4 16.17 36, 42, 48, 57 (Avg:49)
54 Robert Catlin Copperkahn Tiara 4 7:49:00 11.7, 14.8, 11.6 12.79 30, 36, 42, 39 (Avg:39)
J Marty Gregson Burren-dah Gladiator Retired/DNE L2 6:14:00 11.0, 15.3 12.83 37, 45, 50 (Avg:47)
19 Scott Peters Sharahd Narang Retired/DNE L2 6:14:00 11.0, 15.2 12.83 32, 44, 50 (Avg:47)
Middleweight
61 Jenny Shepheard Currowan Mojo 1 5:15:00 18.7, 22.8, 14.6 19.05 32, 39, 36, 36 (Avg:37)
22 Mitchell Ravallion Danjera Jed 2 5:25:00 17.2, 18.6, 21.0 18.46 35, 40, 43, 44 (Avg:42)
20 John Symons Forest Dale Belle De Jour 3 5:41:00 16.5, 20.3, 15.3 17.60 30, 36, 40, 48 (Avg:41)
49 Bev Turner Shazzam 4 5:59:00 14.9, 19.9, 15.1 16.71 37, 45, 48, 49 (Avg:47)
38 Wendy Riha Castlebar Jumeirah 5 6:36:00 12.1, 17.1, 20.3 15.15 29, 36, 37, 40 (Avg:37)
18 Carol Major Saradon 6 7:33:00 13.1, 15.3, 10.5 13.25 44, 44, 52, 44 (Avg:46)
48 Bruce Carter Dasharm Zayesha 7 8:09:00 11.7, 14.8, 9.7 12.27 40, 40, 46, 45 (Avg:43)
14 Allison Knihinicki Ky 8 8:13:00 10.3, 15.8, 10.8 12.17 32, 48, 48, 48 (Avg:48)
24 Alan West Ehsun Sahara 9 9:00:00 10.8, 13.4, 8.6 11.11 40, 48, 48, 48 (Avg:48)
52 Tracy Haack Cusworth Artist Retired/DNE L2 5:31:00 12.2, 17.7 14.50 32, 44, 44 (Avg:44)
17 Lisa Swan Star Jasmine Retired/DNE L2 6:12:00 11.1, 15.3 12.90 40, 44, 52 (Avg:48)
35 Jennifer Rogers Burren-Dah Smokin Joe Retired/DNE L2 6:13:00 11.7, 14.2 12.87 42, 42, 44 (Avg:43)
53 Noni Seagrim Macquarie Park Shafeeq Retired/DNE L2 6:14:00 11.1, 15.0 12.83 40, 55, 48 (Avg:51)
31 Katsumi Ishiguro Keldon Park Sophena Retired/DNE L2 6:23:00 11.1, 14.2 12.53 38, 43, 54 (Avg:48)
41 Corey Nix Castlebar Sheko Retired/DNE L2 6:23:00 10.8, 14.8 12.53 48, 45, 50 (Avg:47)
44 Sam Cunningham Chilli Chilli Bang Bang Retired/DNE L2 6:41:00 11.2, 12.7 11.97 36, 48, 42 (Avg:45)
43 Kristie Wright Khamsin Retired/DNE L2 6:49:00 10.3, 13.4 11.74 42, 52, 54 (Avg:53)
65 Felicity Baird La Danza D'Askari Retired/DNE L2 8:14:00 8.7, 10.8 9.72 44, 53, 56 (Avg:54)
1 Fiona Coddington Burren-dah Princess Fiona Withdrawn L1 0:00:00 - - 38, 38 (Avg:38)
27 Daphne Phillips Achilles Withdrawn L1 0:00:00 - - 32, 40 (Avg:40)
Lightweight
57 Roz Edmunds Everon Park Apollo 1 6:00:00 17.2, 18.1, 13.4 16.67 32, 40, 49, 56 (Avg:48)
21 Shelly Ison Aloha Fabian 1 6:00:00 14.9, 19.9, 14.9 16.67 40, 48, 43, 47 (Avg:46)
45 Irene Adams Shane D Survivor 3 6:06:00 13.2, 21.6, 16.2 16.39 40, 37, 55, 59 (Avg:50)
58 Fia Hasko-Stewart Wantley Kaliph 4 6:29:00 14.3, 18.3, 13.1 15.42 36, 48, 48, 46 (Avg:47)
16 Sue Todd Shakista 4 6:29:00 14.9, 17.3, 13.1 15.42 43, 47, 48, 52 (Avg:49)
60 Melanie Whiteley Blake's Heaven Summer Reign 4 6:29:00 14.3, 18.3, 13.1 15.42 40, 38, 52, 42 (Avg:44)
6 Robin Young Razorback Kadance 7 7:33:00 13.1, 15.5, 10.3 13.25 32, 42, 54, 42 (Avg:46)
46 Jacque Thoms Blake's Heaven Harissa 8 8:09:00 12.3, 14.4, 9.3 12.27 35, 42, 50, 44 (Avg:45)
36 Allix Jones Castlebar Tailwind Retired/DNE L2 5:37:00 12.1, 17.1 14.24 32, 38, 36 (Avg:37)
59 Talea Hasko-Stewart Blake's Heaven Ventura Retired/DNE L2 6:01:00 11.8, 15.0 13.30 34, 49, 56 (Avg:52)
42 Sally Fenner Cherox Aladdin Retired/DNE L2 6:07:00 11.3, 15.4 13.08 42, 44, 44 (Avg:44)
9 Emma Broome Twynham El Nasiriyah Retired/DNE L2 6:13:00 11.7, 14.2 12.87 40, 45, 47 (Avg:46)
51 Julia Wolte Henley Farm Kudra Retired/DNE L2 6:14:00 11.1, 15.0 12.83 34, 45, 56 (Avg:50)
40 Sharyn Coulston Castlebar Truffle Retired/DNE L2 6:23:00 10.8, 14.8 12.53 36, 48, 48 (Avg:48)
32 Bridie Lewis Wakado Sharkhan Retired/DNE L2 6:41:00 10.4, 14.0 11.97 37, 48, 59 (Avg:53)
28 Carly Nix Macrocarpa Pizzazz Retired/DNE L2 8:14:00 9.2, 10.2 9.72 48, 43, 52 (Avg:47)
64 Lydia Thomson Castlebar Icon Retired/DNE L2 8:14:00 8.7, 10.8 9.72 42, 38, 41 (Avg:39)
33 Courtney Chapman Kyang Mister Personality Lame L2 0:00:00 10.4, 14.0 - 32, 42, 48 (Avg:45)
26 RebeccaBrieann Morris Silver Romance Lame L1 0:00:00 10.8 - 37, 41 (Avg:41)
Junior
47 Georgia Curry Macquarie Park Banjo 1 6:00:00 15.3, 19.0, 15.3 16.67 40, 48, 51, 56 (Avg:51)
63 Sorsha Stuart-Rokvic Blake's Heaven Angelico 2 6:29:00 14.3, 18.3, 13.1 15.42 34, 47, 52, 48 (Avg:49)
37 Harrison Berg Castlebar Condor 3 6:36:00 12.1, 17.1, 20.3 15.15 36, 48, 57, 46 (Avg:50)
34 Shantel Nagle Windradyne Ballerina 4 6:51:00 13.2, 15.1, 16.6 14.60 28, 37, 35, 42 (Avg:38)
5 Cybele Coddington Burren-dah Narla 5 7:49:00 11.0, 15.2, 12.7 12.79 36, 44, 46, 44 (Avg:44)
25 Tayla Warren Lilonda Sharjah Retired/DNE L2 5:39:00 13.2, 15.1 14.16 40, 48, 54 (Avg:51)
56 Britanny Johnson Akifa Farras Mangu Retired/DNE L2 6:49:00 10.3, 13.4 11.74 40, 40, 50 (Avg:45)
29 Chelsea Moore Razorback Sugar N Spice Retired/DNE L2 7:43:00 9.2, 11.8 10.37 44, 40, 46 (Avg:43)